Willard, New York
Current Conditions -  °F | °C
As of 12:53 AM on Sunday 23 Nov 2014 (Local Time) from KPEO Reporting Station
Overcast Overcast  
Wind Chill: 39°   Ceiling: 7000
Heat Index: 45°   Visibility: 10mi
Dew Point: 39°   Wind: 14mph
Humidity: 80%   Direction: 220°SW
Pressure: 30.02"   Gusts: 22mph
Location:  42.68°N, 76.87°W
Report Text: KPEO 230553Z AUTO 22012G19KT 10SM FEW037 BKN070 OVC090 07/04 A3002 RMK AO2 RAB16E44 SLP172 P0000 60001 T00720039 10078 20050 51004
Loading
Personal Weather Stations






























Interactive Weather Map New forecast layout! Learn more

10-Day Weather Forecast

Advertisements
Track Severe Weather on mobile